createdAt,value
2022-11-21T00:01:17.043Z,76163.84
2022-11-21T00:03:44.914Z,76165.88
2022-11-21T00:06:12.729Z,76163.84
2022-11-21T00:08:40.540Z,76159.78
2022-11-21T00:11:09.759Z,76159.78
2022-11-21T00:13:37.739Z,76153.66
2022-11-21T00:16:06.670Z,76151.63
2022-11-21T00:18:34.655Z,76155.69
2022-11-21T00:21:06.295Z,76155.69
2022-11-21T00:23:34.705Z,76159.78
2022-11-21T00:26:05.420Z,76163.84
2022-11-21T00:28:34.642Z,76155.69
2022-11-21T00:31:02.518Z,76153.66
2022-11-21T00:33:30.470Z,76151.63
2022-11-21T00:35:58.359Z,76147.53
2022-11-21T00:38:26.119Z,76149.56
2022-11-21T00:40:53.957Z,76143.47
2022-11-21T00:43:21.715Z,76133.25
2022-11-21T00:45:50.884Z,76127.16
2022-11-21T00:48:18.836Z,76119.00
2022-11-21T00:50:50.033Z,76116.97
2022-11-21T00:53:17.916Z,76112.88
2022-11-21T00:55:45.838Z,76106.75
2022-11-21T00:58:13.632Z,76100.66
2022-11-21T01:00:41.521Z,76098.59
2022-11-21T01:03:10.831Z,76094.53
2022-11-21T01:05:38.608Z,76090.44
2022-11-21T01:08:06.746Z,76086.38
2022-11-21T01:10:35.817Z,76090.44
2022-11-21T01:13:03.853Z,76086.38
2022-11-21T01:15:31.676Z,76086.38
2022-11-21T01:17:59.509Z,76086.38
2022-11-21T01:20:28.610Z,76078.22
2022-11-21T01:22:56.424Z,76068.03
2022-11-21T01:25:24.184Z,76063.94
2022-11-21T01:27:51.997Z,76061.91
2022-11-21T01:30:19.945Z,76066.00
2022-11-21T01:32:49.553Z,76059.88
2022-11-21T01:35:17.395Z,76070.06
2022-11-21T01:37:49.339Z,76074.16
2022-11-21T01:40:18.038Z,76070.06
2022-11-21T01:42:54.052Z,76070.06
2022-11-21T01:45:55.206Z,76061.91
2022-11-21T01:48:28.631Z,76051.72
2022-11-21T01:51:00.701Z,76041.53
2022-11-21T01:53:30.271Z,76037.44
2022-11-21T01:55:58.320Z,76031.31
2022-11-21T01:58:26.727Z,76045.59
2022-11-21T02:00:54.807Z,76025.22
2022-11-21T02:03:26.043Z,76012.97
2022-11-21T02:05:56.387Z,76006.88
2022-11-21T02:08:27.315Z,76000.75
2022-11-21T02:11:07.703Z,75996.66
2022-11-21T02:13:35.608Z,75992.59
2022-11-21T02:16:03.577Z,75998.72
2022-11-21T02:18:31.383Z,75986.47
2022-11-21T02:21:07.204Z,75988.50
2022-11-21T02:23:42.785Z,75996.66
2022-11-21T02:26:13.033Z,75996.66
2022-11-21T02:28:40.816Z,75994.63
2022-11-21T02:31:08.592Z,75998.72
2022-11-21T02:33:36.498Z,76002.78
2022-11-21T02:36:05.372Z,75996.66
2022-11-21T02:38:36.431Z,75996.66
2022-11-21T02:41:10.665Z,75998.72
2022-11-21T02:43:45.742Z,75998.72
2022-11-21T02:46:13.599Z,76000.75
2022-11-21T02:48:41.588Z,75996.66
2022-11-21T02:51:10.018Z,75996.66
2022-11-21T02:53:37.869Z,75996.66
2022-11-21T02:56:05.935Z,75996.66
2022-11-21T02:58:33.889Z,75996.66
2022-11-21T03:01:03.148Z,76000.75
2022-11-21T03:03:31.031Z,75996.66
2022-11-21T03:05:58.835Z,75996.66
2022-11-21T03:08:26.755Z,75994.63
2022-11-21T03:10:54.861Z,75984.44
2022-11-21T03:13:22.651Z,75972.22
2022-11-21T03:15:50.487Z,75968.13
2022-11-21T03:18:19.607Z,75968.13
2022-11-21T03:20:47.413Z,75966.09
2022-11-21T03:23:15.208Z,75955.91
2022-11-21T03:25:43.006Z,75955.91
2022-11-21T03:28:10.787Z,75964.06
2022-11-21T03:30:38.598Z,75968.13
2022-11-21T03:33:06.344Z,75955.91
2022-11-21T03:35:35.484Z,75951.81
2022-11-21T03:38:03.292Z,75945.69
2022-11-21T03:40:31.165Z,75939.59
2022-11-21T03:42:58.950Z,75935.50
2022-11-21T03:45:26.772Z,75931.44
2022-11-21T03:47:54.516Z,75927.34
2022-11-21T03:50:22.322Z,75923.28
2022-11-21T03:52:51.544Z,75923.28
2022-11-21T03:55:19.348Z,75917.16
2022-11-21T03:57:47.223Z,75917.16
2022-11-21T04:00:16.973Z,75904.94
2022-11-21T04:02:44.771Z,75896.78
2022-11-21T04:05:12.577Z,75890.66
2022-11-21T04:07:40.477Z,75876.38
2022-11-21T04:10:10.744Z,75876.38
2022-11-21T04:12:38.647Z,75878.44
2022-11-21T04:15:13.210Z,75874.34
2022-11-21T04:17:41.614Z,75874.34
2022-11-21T04:20:10.549Z,75870.28
2022-11-21T04:22:38.312Z,75870.28
2022-11-21T04:25:09.596Z,75866.19
2022-11-21T04:27:37.383Z,75866.19
2022-11-21T04:30:06.254Z,75862.13
2022-11-21T04:32:34.022Z,75862.13
2022-11-21T04:35:01.846Z,75864.16
2022-11-21T04:37:29.600Z,75853.97
2022-11-21T04:39:57.428Z,75853.97
2022-11-21T04:42:26.611Z,75845.81
2022-11-21T04:44:54.411Z,75837.66
2022-11-21T04:47:22.183Z,75841.72
2022-11-21T04:49:50.041Z,75841.72
2022-11-21T04:52:18.002Z,75841.72
2022-11-21T04:54:46.025Z,75837.66
2022-11-21T04:57:13.893Z,75835.63
2022-11-21T04:59:43.033Z,75835.63
2022-11-21T05:02:11.346Z,75833.56
2022-11-21T05:04:39.176Z,75837.66
2022-11-21T05:07:07.039Z,75837.66
2022-11-21T05:09:34.871Z,75841.72
2022-11-21T05:12:20.331Z,75841.72
2022-11-21T05:14:49.500Z,75841.72
2022-11-21T05:17:18.213Z,75841.72
2022-11-21T05:19:46.020Z,75841.72
2022-11-21T05:22:14.005Z,75835.63
2022-11-21T05:24:41.938Z,75829.50
2022-11-21T05:27:09.712Z,75835.63
2022-11-21T05:29:37.504Z,75837.66
2022-11-21T05:32:06.776Z,75841.72
2022-11-21T05:34:34.626Z,75839.69
2022-11-21T05:37:02.404Z,75837.66
2022-11-21T05:39:30.289Z,75839.69
2022-11-21T05:42:02.758Z,75843.75
2022-11-21T05:44:31.163Z,75837.66
2022-11-21T05:46:59.088Z,75837.66
2022-11-21T05:49:28.240Z,75837.66
2022-11-21T05:51:56.055Z,75831.53
2022-11-21T05:54:23.840Z,75831.53
2022-11-21T05:56:51.675Z,75835.63
2022-11-21T05:59:19.556Z,75829.50
2022-11-21T06:02:04.902Z,75829.50
2022-11-21T06:04:34.144Z,75829.50
2022-11-21T06:07:01.976Z,75823.38
2022-11-21T06:09:29.812Z,75817.25
2022-11-21T06:11:57.647Z,75819.31
2022-11-21T06:14:25.602Z,75817.25
2022-11-21T06:16:53.584Z,75811.16
2022-11-21T06:19:21.460Z,75813.19
2022-11-21T06:21:50.578Z,75829.50
2022-11-21T06:24:22.084Z,75821.34
2022-11-21T06:26:50.340Z,75825.41
2022-11-21T06:29:18.140Z,75821.34
2022-11-21T06:31:45.894Z,75821.34
2022-11-21T06:34:13.736Z,75821.34
2022-11-21T06:36:41.512Z,75823.38
2022-11-21T06:39:10.606Z,75817.25
2022-11-21T06:41:38.486Z,75825.41
2022-11-21T06:44:06.501Z,75819.31
2022-11-21T06:46:34.299Z,75821.34
2022-11-21T06:49:02.361Z,75819.31
2022-11-21T06:51:30.158Z,75813.19
2022-11-21T06:53:59.625Z,75809.13
2022-11-21T06:56:30.418Z,75800.97
2022-11-21T06:58:58.552Z,75764.25
2022-11-21T07:01:26.765Z,75768.34
2022-11-21T07:03:55.084Z,75784.66
2022-11-21T07:06:23.391Z,75788.72
2022-11-21T07:09:17.691Z,75790.75
2022-11-21T07:11:43.950Z,75788.72
2022-11-21T07:14:10.761Z,75788.72
2022-11-21T07:16:38.644Z,75788.72
2022-11-21T07:19:06.614Z,75788.72
2022-11-21T07:21:34.417Z,75796.88
2022-11-21T07:24:02.210Z,75796.88
2022-11-21T07:26:30.107Z,75788.72
2022-11-21T07:28:59.600Z,75778.53
2022-11-21T07:31:27.460Z,75778.53
2022-11-21T07:33:55.285Z,75772.41
2022-11-21T07:36:23.078Z,75772.41
2022-11-21T07:38:50.839Z,75770.38
2022-11-21T07:41:18.798Z,75768.34
2022-11-21T07:43:46.582Z,75768.34
2022-11-21T07:46:15.762Z,75760.19
2022-11-21T07:48:43.567Z,75756.09
2022-11-21T07:51:11.361Z,75764.25
2022-11-21T07:53:39.172Z,75754.06
2022-11-21T07:56:09.526Z,75752.03
2022-11-21T07:58:37.359Z,75760.19
2022-11-21T08:01:06.380Z,75756.09
2022-11-21T08:03:35.663Z,75743.88
2022-11-21T08:06:05.115Z,75727.56
2022-11-21T08:08:32.989Z,75707.19
2022-11-21T08:11:05.711Z,75674.56
2022-11-21T08:13:33.793Z,75660.28
2022-11-21T08:16:03.705Z,75646.03
2022-11-21T08:18:35.850Z,75648.06
2022-11-21T08:21:04.697Z,75654.19
2022-11-21T08:23:33.392Z,75650.09
2022-11-21T08:26:01.219Z,75662.34
2022-11-21T08:28:29.181Z,75666.41
2022-11-21T08:30:57.049Z,75670.50
2022-11-21T08:33:27.208Z,75670.50
2022-11-21T08:35:56.405Z,75668.44
2022-11-21T08:38:24.199Z,75670.50
2022-11-21T08:41:17.390Z,75672.53
2022-11-21T08:43:45.730Z,75674.56
2022-11-21T08:46:13.557Z,75678.63
2022-11-21T08:48:41.335Z,75684.75
2022-11-21T08:51:10.578Z,75688.84
2022-11-21T08:53:38.407Z,75690.88
2022-11-21T08:56:06.243Z,75694.94
2022-11-21T08:58:34.073Z,75690.88
2022-11-21T09:01:02.076Z,75690.88
2022-11-21T09:03:31.488Z,75678.63
2022-11-21T09:05:59.971Z,75670.50
2022-11-21T09:08:30.444Z,75670.50
2022-11-21T09:10:59.068Z,75670.50
2022-11-21T09:13:27.031Z,75664.38
2022-11-21T09:16:15.208Z,75658.25
2022-11-21T09:18:47.178Z,75658.25
2022-11-21T09:21:16.887Z,75654.19
2022-11-21T09:23:46.968Z,75650.09
2022-11-21T09:26:15.245Z,75664.38
2022-11-21T09:28:43.046Z,75666.41
2022-11-21T09:31:10.859Z,75672.53
2022-11-21T09:33:38.685Z,75680.69
2022-11-21T09:36:06.572Z,75686.78
2022-11-21T09:38:34.332Z,75703.09
2022-11-21T09:41:34.373Z,75709.22
2022-11-21T09:44:10.414Z,75719.41
2022-11-21T09:46:46.918Z,75739.81
2022-11-21T09:49:16.350Z,75747.94
2022-11-21T09:51:46.145Z,75756.09
2022-11-21T09:54:19.573Z,75764.25
2022-11-21T09:56:49.689Z,75766.31
2022-11-21T09:59:34.821Z,75776.50
2022-11-21T10:02:03.688Z,75780.56
2022-11-21T10:04:32.500Z,75792.81
2022-11-21T10:07:05.597Z,75798.91
2022-11-21T10:09:48.816Z,75800.97
2022-11-21T10:12:39.984Z,75800.97
2022-11-21T10:15:33.053Z,75805.03
2022-11-21T10:18:21.672Z,75786.69
2022-11-21T10:20:58.572Z,75792.81
2022-11-21T10:23:37.768Z,75796.88
2022-11-21T10:26:16.527Z,75809.13
2022-11-21T10:28:52.933Z,75805.03
2022-11-21T10:31:21.751Z,75800.97
2022-11-21T10:33:51.746Z,75807.06
2022-11-21T10:36:27.957Z,75798.91
2022-11-21T10:39:01.552Z,75800.97
2022-11-21T10:41:41.574Z,75796.88
2022-11-21T10:44:41.634Z,75788.72
2022-11-21T10:47:15.915Z,75782.59
2022-11-21T10:49:47.717Z,75768.34
2022-11-21T10:52:21.045Z,75758.16
2022-11-21T10:55:09.493Z,75756.09
2022-11-21T10:57:45.266Z,75750.00
2022-11-21T11:00:32.579Z,75743.88
2022-11-21T11:03:07.209Z,75745.91
2022-11-21T11:05:37.302Z,75733.69
2022-11-21T11:08:08.700Z,75739.81
2022-11-21T11:10:38.472Z,75727.56
2022-11-21T11:13:49.454Z,75727.56
2022-11-21T11:16:21.414Z,75713.28
2022-11-21T11:18:57.394Z,75703.09
2022-11-21T11:21:27.479Z,75699.03
2022-11-21T11:24:06.676Z,75690.88
2022-11-21T11:26:34.760Z,75690.88
2022-11-21T11:29:11.575Z,75690.88
2022-11-21T11:31:46.168Z,75682.72
2022-11-21T11:34:16.297Z,75690.88
2022-11-21T11:36:55.397Z,75676.59
2022-11-21T11:39:34.761Z,75668.44
2022-11-21T11:42:48.247Z,75656.22
2022-11-21T11:45:41.583Z,75658.25
2022-11-21T11:48:11.505Z,75654.19
2022-11-21T11:50:46.613Z,75652.13
2022-11-21T11:53:18.598Z,75650.09
2022-11-21T11:55:53.011Z,75635.84
2022-11-21T11:58:28.613Z,75635.84
2022-11-21T12:01:05.130Z,75615.44
2022-11-21T12:03:42.892Z,75601.19
2022-11-21T12:06:17.271Z,75601.19
2022-11-21T12:08:53.583Z,75609.34
2022-11-21T12:11:48.292Z,75633.78
2022-11-21T12:14:37.863Z,75646.03
2022-11-21T12:17:08.881Z,75629.72
2022-11-21T12:19:40.581Z,75629.72
2022-11-21T12:22:11.857Z,75633.78
2022-11-21T12:24:42.935Z,75633.78
2022-11-21T12:27:23.641Z,75629.72
2022-11-21T12:30:04.741Z,75633.78
2022-11-21T12:32:55.590Z,75631.75
2022-11-21T12:35:39.905Z,75637.88
2022-11-21T12:38:20.426Z,75646.03
2022-11-21T12:40:59.087Z,75648.06
2022-11-21T12:43:36.260Z,75646.03
2022-11-21T12:46:15.839Z,75650.09
2022-11-21T12:49:12.161Z,75641.94
2022-11-21T12:52:11.153Z,75654.19
2022-11-21T12:54:58.801Z,75658.25
2022-11-21T12:57:37.585Z,75662.34
2022-11-21T13:00:15.402Z,75670.50
2022-11-21T13:03:05.525Z,75674.56
2022-11-21T13:05:38.330Z,75674.56
2022-11-21T13:08:11.703Z,75672.53
2022-11-21T13:10:49.437Z,75682.72
2022-11-21T13:13:23.629Z,75682.72
2022-11-21T13:15:57.730Z,75666.41
2022-11-21T13:18:31.370Z,75670.50
2022-11-21T13:20:59.321Z,75674.56
2022-11-21T13:23:39.277Z,75678.63
2022-11-21T13:26:48.741Z,75674.56
2022-11-21T13:29:17.049Z,75678.63
2022-11-21T13:31:44.921Z,75686.78
2022-11-21T13:34:39.515Z,75684.75
2022-11-21T13:37:07.393Z,75682.72
2022-11-21T13:39:39.864Z,75686.78
2022-11-21T13:42:30.118Z,75686.78
2022-11-21T13:44:58.453Z,75688.84
2022-11-21T13:47:59.902Z,75690.88
2022-11-21T13:50:44.803Z,75676.59
2022-11-21T13:53:29.624Z,75678.63
2022-11-21T13:56:03.619Z,75670.50
2022-11-21T13:58:54.659Z,75658.25
2022-11-21T14:01:44.688Z,75641.94
2022-11-21T14:04:31.964Z,75641.94
2022-11-21T14:07:29.390Z,75646.03
2022-11-21T14:09:59.915Z,75654.19
2022-11-21T14:12:35.378Z,75654.19
2022-11-21T14:15:20.795Z,75654.19
2022-11-21T14:17:51.135Z,75666.41
2022-11-21T14:20:26.289Z,75670.50
2022-11-21T14:23:03.367Z,75670.50
2022-11-21T14:25:37.489Z,75666.41
2022-11-21T14:28:11.472Z,75674.56
2022-11-21T14:30:41.560Z,75678.63
2022-11-21T14:33:27.046Z,75686.78
2022-11-21T14:35:58.113Z,75694.94
2022-11-21T14:38:27.071Z,75694.94
2022-11-21T14:41:25.759Z,75697.00
2022-11-21T14:44:18.488Z,75699.03
2022-11-21T14:46:47.744Z,75711.25
2022-11-21T14:49:24.457Z,75715.34
2022-11-21T14:51:58.878Z,75717.38
2022-11-21T14:54:28.968Z,75727.56
2022-11-21T14:57:00.863Z,75727.56
2022-11-21T14:59:32.459Z,75747.94
2022-11-21T15:02:04.630Z,75758.16
2022-11-21T15:04:35.450Z,75770.38
2022-11-21T15:07:04.271Z,75780.56
2022-11-21T15:12:30.705Z,75788.72
2022-11-21T15:15:02.511Z,75786.69
2022-11-21T15:17:31.141Z,75784.66
2022-11-21T15:20:20.441Z,75803.00
2022-11-21T15:22:49.941Z,75809.13
2022-11-21T15:25:21.311Z,75817.25
2022-11-21T15:27:50.440Z,75823.38
2022-11-21T15:30:38.512Z,75833.56
2022-11-21T15:33:09.450Z,75839.69
2022-11-21T15:35:47.375Z,75849.88
2022-11-21T15:38:27.834Z,75856.00
2022-11-21T15:41:27.534Z,75866.19
2022-11-21T15:43:56.677Z,75894.75
2022-11-21T15:46:27.082Z,75902.88
2022-11-21T15:48:56.356Z,75906.97
2022-11-21T15:51:51.440Z,75917.16
2022-11-21T15:54:15.730Z,75931.44
2022-11-21T15:56:43.889Z,75935.50
2022-11-21T15:59:11.915Z,75939.59
2022-11-21T16:01:41.427Z,75941.63
2022-11-21T16:04:11.951Z,75941.63
2022-11-21T16:06:39.977Z,75943.66
2022-11-21T16:09:07.741Z,75949.78
2022-11-21T16:11:38.129Z,75955.91
2022-11-21T16:14:07.650Z,75970.16
2022-11-21T16:16:42.947Z,75980.34
2022-11-21T16:19:13.668Z,75972.22
2022-11-21T16:21:41.905Z,75978.31
2022-11-21T16:24:10.194Z,75972.22
2022-11-21T16:26:38.144Z,75972.22
2022-11-21T16:29:06.397Z,75970.16
2022-11-21T16:31:37.104Z,75982.41
2022-11-21T16:34:04.986Z,75996.66
2022-11-21T16:36:34.174Z,75998.72
2022-11-21T16:39:08.962Z,76004.81
2022-11-21T16:41:41.039Z,76000.75
2022-11-21T16:44:13.681Z,76029.28
2022-11-21T16:46:43.471Z,76041.53
2022-11-21T16:49:11.556Z,76047.63
2022-11-21T16:51:40.694Z,76049.69
2022-11-21T16:54:09.347Z,76051.72
2022-11-21T16:56:37.584Z,76049.69
2022-11-21T16:59:05.352Z,76047.63
2022-11-21T17:01:33.728Z,76037.44
2022-11-21T17:04:01.573Z,76049.69
2022-11-21T17:06:30.956Z,76043.56
2022-11-21T17:09:02.089Z,76041.53
2022-11-21T17:11:31.953Z,76037.44
2022-11-21T17:14:02.248Z,76047.63
2022-11-21T17:16:30.819Z,76057.84
2022-11-21T17:19:01.020Z,76074.16
2022-11-21T17:21:29.979Z,76074.16
2022-11-21T17:23:58.096Z,76070.06
2022-11-21T17:26:28.819Z,76061.91
2022-11-21T17:28:58.270Z,76066.00
2022-11-21T17:31:26.570Z,76061.91
2022-11-21T17:33:56.411Z,76057.84
2022-11-21T17:36:26.197Z,76051.72
2022-11-21T17:38:54.729Z,76053.75
2022-11-21T17:41:24.152Z,76055.78
2022-11-21T17:43:56.705Z,76041.53
2022-11-21T17:46:25.605Z,76033.38
2022-11-21T17:48:57.447Z,76021.13
2022-11-21T17:51:27.605Z,76017.06
2022-11-21T17:53:55.481Z,76000.75
2022-11-21T17:56:25.103Z,76019.09
2022-11-21T17:58:53.318Z,76035.41
2022-11-21T18:01:23.027Z,76033.38
2022-11-21T18:03:56.454Z,76045.59
2022-11-21T18:06:25.109Z,76063.94
2022-11-21T18:08:53.136Z,76082.28
2022-11-21T18:11:22.568Z,76094.53
2022-11-21T18:13:51.428Z,76098.59
2022-11-21T18:16:21.341Z,76090.44
2022-11-21T18:18:51.503Z,76076.19
2022-11-21T18:21:20.999Z,76072.09
2022-11-21T18:23:48.953Z,76074.16
2022-11-21T18:26:20.555Z,76070.06
2022-11-21T18:28:57.216Z,76059.88
2022-11-21T18:31:35.982Z,76061.91
2022-11-21T18:34:06.848Z,76063.94
2022-11-21T18:36:34.793Z,76053.75
2022-11-21T18:39:08.945Z,76043.56
2022-11-21T18:41:41.654Z,76049.69
2022-11-21T18:44:10.085Z,76041.53
2022-11-21T18:46:38.791Z,76033.38
2022-11-21T18:49:08.697Z,76029.28
2022-11-21T18:51:37.353Z,76043.56
2022-11-21T18:54:07.832Z,76039.47
2022-11-21T18:56:36.268Z,76039.47
2022-11-21T18:59:05.719Z,76035.41
2022-11-21T19:01:35.045Z,76041.53
2022-11-21T19:04:03.407Z,76033.38
2022-11-21T19:06:33.074Z,76039.47
2022-11-21T19:09:00.969Z,76055.78
2022-11-21T19:11:30.400Z,76061.91
2022-11-21T19:14:00.475Z,76057.84
2022-11-21T19:16:31.103Z,76049.69
2022-11-21T19:19:33.017Z,76017.06
2022-11-21T19:21:48.486Z,76000.75
2022-11-21T19:24:16.511Z,75988.50
2022-11-21T19:26:44.360Z,75964.06
2022-11-21T19:29:12.837Z,75957.94
2022-11-21T19:31:45.070Z,75955.91
2022-11-21T19:34:13.724Z,75968.13
2022-11-21T19:36:41.874Z,75976.28
2022-11-21T19:39:11.133Z,75988.50
2022-11-21T19:41:39.232Z,75998.72
2022-11-21T19:44:07.109Z,75998.72
2022-11-21T19:46:36.769Z,76008.91
2022-11-21T19:49:06.198Z,76008.91
2022-11-21T19:51:35.801Z,75996.66
2022-11-21T19:54:03.994Z,76000.75
2022-11-21T19:56:33.408Z,75998.72
2022-11-21T19:59:01.523Z,75980.34
2022-11-21T20:01:30.834Z,75964.06
2022-11-21T20:04:00.502Z,75968.13
2022-11-21T20:06:30.764Z,75978.31
2022-11-21T20:09:00.881Z,75984.44
2022-11-21T20:11:30.961Z,75986.47
2022-11-21T20:14:00.550Z,76012.97
2022-11-21T20:16:30.456Z,76029.28
2022-11-21T20:19:00.812Z,76043.56
2022-11-21T20:21:29.261Z,76037.44
2022-11-21T20:23:58.183Z,76033.38
2022-11-21T20:26:26.971Z,76025.22
2022-11-21T20:28:54.969Z,76019.09
2022-11-21T20:31:27.010Z,76010.94
2022-11-21T20:33:57.450Z,76015.03
2022-11-21T20:36:27.378Z,76012.97
2022-11-21T20:38:56.792Z,76004.81
2022-11-21T20:41:26.321Z,76008.91
2022-11-21T20:46:44.462Z,76004.81
2022-11-21T20:49:12.627Z,76006.88
2022-11-21T20:54:29.030Z,76000.75
2022-11-21T20:56:57.021Z,76000.75
2022-11-21T20:59:26.236Z,75998.72
2022-11-21T21:01:55.654Z,75992.59
2022-11-21T21:04:23.521Z,75992.59
2022-11-21T21:06:51.360Z,75996.66
2022-11-21T21:09:19.218Z,75992.59
2022-11-21T21:11:54.185Z,75990.56
2022-11-21T21:14:22.144Z,75980.34
2022-11-21T21:16:50.634Z,75980.34
2022-11-21T21:19:20.625Z,75974.25
2022-11-21T21:21:48.782Z,75972.22
2022-11-21T21:24:17.238Z,75976.28
2022-11-21T21:26:47.537Z,75968.13
2022-11-21T21:29:17.874Z,75968.13
2022-11-21T21:31:50.912Z,75972.22
2022-11-21T21:34:20.837Z,75972.22
2022-11-21T21:36:48.882Z,75970.16
2022-11-21T21:39:16.702Z,75972.22
2022-11-21T21:41:46.632Z,75968.13
2022-11-21T21:44:14.731Z,75984.44
2022-11-21T21:46:42.573Z,75984.44
2022-11-21T21:49:10.776Z,75988.50
2022-11-21T21:51:40.137Z,75986.47
2022-11-21T21:54:08.338Z,75988.50
2022-11-21T21:56:36.127Z,75986.47
2022-11-21T21:59:03.913Z,75984.44
2022-11-21T22:01:33.377Z,75986.47
2022-11-21T22:04:02.934Z,75982.41
2022-11-21T22:06:33.360Z,75982.41
2022-11-21T22:09:03.560Z,75988.50
2022-11-21T22:11:33.306Z,75992.59
2022-11-21T22:14:03.271Z,75996.66
2022-11-21T22:16:31.647Z,75988.50
2022-11-21T22:18:59.709Z,75980.34
2022-11-21T22:21:32.285Z,75994.63
2022-11-21T22:24:24.353Z,75984.44
2022-11-21T22:26:51.027Z,75988.50
2022-11-21T22:29:18.906Z,75988.50
2022-11-21T22:31:46.724Z,75984.44
2022-11-21T22:34:14.547Z,75986.47
2022-11-21T22:36:42.942Z,75992.59
2022-11-21T22:39:12.131Z,75984.44
2022-11-21T22:41:39.903Z,75984.44
2022-11-21T22:44:07.766Z,75988.50
2022-11-21T22:46:35.878Z,75992.59
2022-11-21T22:49:03.683Z,75990.56
2022-11-21T22:51:31.520Z,75980.34
2022-11-21T22:53:59.309Z,75976.28
2022-11-21T22:56:28.455Z,75978.31
2022-11-21T22:58:56.638Z,75976.28
2022-11-21T23:01:26.781Z,75982.41
2022-11-21T23:03:55.985Z,75990.56
2022-11-21T23:06:25.376Z,75988.50
2022-11-21T23:08:54.603Z,75986.47
2022-11-21T23:11:24.370Z,75992.59
2022-11-21T23:13:54.631Z,75992.59
2022-11-21T23:16:22.927Z,75992.59
2022-11-21T23:18:52.761Z,75984.44
2022-11-21T23:21:20.887Z,75996.66
2022-11-21T23:23:48.805Z,75988.50
2022-11-21T23:26:16.754Z,75984.44
2022-11-21T23:28:44.617Z,75980.34
2022-11-21T23:31:13.889Z,75980.34
2022-11-21T23:33:41.725Z,75974.25
2022-11-21T23:36:09.902Z,75964.06
2022-11-21T23:38:37.700Z,75970.16
2022-11-21T23:41:05.506Z,75955.91
2022-11-21T23:43:33.408Z,75947.75
2022-11-21T23:46:01.206Z,75945.69
2022-11-21T23:48:30.382Z,75943.66
2022-11-21T23:50:58.215Z,75943.66
2022-11-21T23:53:26.039Z,75941.63
2022-11-21T23:55:53.878Z,75939.59
2022-11-21T23:58:21.818Z,75943.66
